createdAt,value
2022-11-12T00:00:40.050Z,23.20
2022-11-12T00:03:07.010Z,22.47
2022-11-12T00:05:33.829Z,24.93
2022-11-12T00:08:00.863Z,22.97
2022-11-12T00:10:27.820Z,24.80
2022-11-12T00:12:55.178Z,23.90
2022-11-12T00:15:22.001Z,22.03
2022-11-12T00:17:48.767Z,23.20
2022-11-12T00:20:15.745Z,22.80
2022-11-12T00:22:43.830Z,24.57
2022-11-12T00:25:10.581Z,24.03
2022-11-12T00:27:37.373Z,25.93
2022-11-12T00:30:04.892Z,26.43
2022-11-12T00:32:31.660Z,25.90
2022-11-12T00:35:02.324Z,28.03
2022-11-12T00:37:29.608Z,24.27
2022-11-12T00:39:56.365Z,27.83
2022-11-12T00:42:23.153Z,26.67
2022-11-12T00:44:50.098Z,26.67
2022-11-12T00:47:17.092Z,29.37
2022-11-12T00:49:43.912Z,26.10
2022-11-12T00:52:10.741Z,26.67
2022-11-12T00:54:37.541Z,26.23
2022-11-12T00:57:04.333Z,23.63
2022-11-12T00:59:32.143Z,22.57
2022-11-12T01:01:58.909Z,22.70
2022-11-12T01:04:25.797Z,21.33
2022-11-12T01:06:52.643Z,22.03
2022-11-12T01:09:19.488Z,22.90
2022-11-12T01:11:46.301Z,22.03
2022-11-12T01:14:13.097Z,22.03
2022-11-12T01:16:40.380Z,22.67
2022-11-12T01:19:08.817Z,19.53
2022-11-12T01:21:39.109Z,22.20
2022-11-12T01:24:06.414Z,21.63
2022-11-12T01:26:33.206Z,22.30
2022-11-12T01:29:00.051Z,20.20
2022-11-12T01:31:37.588Z,20.17
2022-11-12T01:34:06.349Z,20.63
2022-11-12T01:36:35.206Z,20.23
2022-11-12T01:39:02.103Z,20.37
2022-11-12T01:41:31.426Z,20.40
2022-11-12T01:44:08.488Z,20.73
2022-11-12T01:46:35.593Z,20.37
2022-11-12T01:49:03.728Z,21.67
2022-11-12T01:51:36.744Z,20.47
2022-11-12T01:54:05.298Z,18.90
2022-11-12T01:56:32.134Z,18.67
2022-11-12T01:59:10.862Z,20.47
2022-11-12T02:01:37.662Z,20.07
2022-11-12T02:04:04.644Z,18.17
2022-11-12T02:06:31.518Z,19.57
2022-11-12T02:08:58.352Z,17.93
2022-11-12T02:11:25.131Z,19.50
2022-11-12T02:13:58.007Z,20.73
2022-11-12T02:16:29.837Z,19.90
2022-11-12T02:18:56.641Z,18.10
2022-11-12T02:21:24.455Z,19.20
2022-11-12T02:23:58.370Z,17.73
2022-11-12T02:26:25.617Z,19.40
2022-11-12T02:28:52.503Z,18.40
2022-11-12T02:31:19.305Z,18.17
2022-11-12T02:33:46.065Z,18.67
2022-11-12T02:36:12.866Z,19.07
2022-11-12T02:38:39.656Z,18.47
2022-11-12T02:41:06.464Z,17.67
2022-11-12T02:43:33.233Z,19.13
2022-11-12T02:46:00.048Z,19.43
2022-11-12T02:48:27.099Z,19.10
2022-11-12T02:50:54.095Z,18.03
2022-11-12T02:53:21.291Z,18.13
2022-11-12T02:55:48.497Z,17.43
2022-11-12T02:58:15.297Z,17.70
2022-11-12T03:00:42.116Z,17.07
2022-11-12T03:03:09.899Z,17.43
2022-11-12T03:05:36.953Z,17.33
2022-11-12T03:08:05.942Z,17.37
2022-11-12T03:10:33.889Z,18.13
2022-11-12T03:13:01.349Z,17.77
2022-11-12T03:15:28.752Z,18.57
2022-11-12T03:17:55.613Z,18.07
2022-11-12T03:20:22.619Z,17.40
2022-11-12T03:23:00.113Z,18.30
2022-11-12T03:25:27.141Z,16.13
2022-11-12T03:28:01.537Z,17.33
2022-11-12T03:30:28.953Z,17.73
2022-11-12T03:32:55.893Z,18.03
2022-11-12T03:35:22.838Z,17.70
2022-11-12T03:37:49.961Z,17.87
2022-11-12T03:40:17.776Z,17.53
2022-11-12T03:42:48.522Z,16.23
2022-11-12T03:45:16.008Z,17.77
2022-11-12T03:47:44.353Z,17.10
2022-11-12T03:50:12.128Z,18.20
2022-11-12T03:52:39.111Z,17.20
2022-11-12T03:55:06.267Z,17.67
2022-11-12T03:57:33.668Z,17.47
2022-11-12T04:00:00.480Z,18.67
2022-11-12T04:02:30.075Z,18.53
2022-11-12T04:05:15.661Z,17.70
2022-11-12T04:08:00.866Z,16.67
2022-11-12T04:10:31.412Z,17.87
2022-11-12T04:13:17.016Z,16.37
2022-11-12T04:15:43.773Z,18.13
2022-11-12T04:18:29.193Z,17.33
2022-11-12T04:21:14.634Z,16.97
2022-11-12T04:23:41.413Z,17.43
2022-11-12T04:26:23.209Z,17.70
2022-11-12T04:29:08.676Z,17.57
2022-11-12T04:31:35.825Z,15.97
2022-11-12T04:34:22.583Z,17.40
2022-11-12T04:36:49.417Z,18.60
2022-11-12T04:39:16.193Z,17.63
2022-11-12T04:42:01.698Z,17.70
2022-11-12T04:44:47.032Z,16.30
2022-11-12T04:47:13.786Z,19.40
2022-11-12T04:49:40.548Z,16.87
2022-11-12T04:52:07.351Z,17.97
2022-11-12T04:54:34.421Z,17.97
2022-11-12T04:57:01.279Z,18.03
2022-11-12T04:59:28.090Z,18.10
2022-11-12T05:01:55.871Z,17.10
2022-11-12T05:04:22.686Z,17.33
2022-11-12T05:06:52.368Z,18.70
2022-11-12T05:09:19.949Z,18.73
2022-11-12T05:11:46.795Z,16.80
2022-11-12T05:14:13.690Z,19.90
2022-11-12T05:16:40.480Z,17.33
2022-11-12T05:19:07.349Z,17.07
2022-11-12T05:21:52.837Z,18.27
2022-11-12T05:24:40.401Z,17.20
2022-11-12T05:27:11.830Z,19.77
2022-11-12T05:29:38.758Z,16.77
2022-11-12T05:32:06.880Z,17.97
2022-11-12T05:34:33.760Z,17.73
2022-11-12T05:37:01.588Z,17.63
2022-11-12T05:39:28.401Z,18.90
2022-11-12T05:42:11.887Z,18.73
2022-11-12T05:44:39.581Z,16.37
2022-11-12T05:47:06.381Z,16.83
2022-11-12T05:49:33.142Z,16.43
2022-11-12T05:51:59.907Z,16.23
2022-11-12T05:54:26.888Z,16.93
2022-11-12T05:56:53.855Z,16.87
2022-11-12T05:59:20.682Z,17.37
2022-11-12T06:01:47.746Z,16.27
2022-11-12T06:04:14.976Z,16.80
2022-11-12T06:06:42.323Z,17.87
2022-11-12T06:09:09.406Z,17.47
2022-11-12T06:11:36.471Z,15.57
2022-11-12T06:14:03.712Z,16.93
2022-11-12T06:16:30.665Z,15.43
2022-11-12T06:18:57.664Z,16.57
2022-11-12T06:21:24.544Z,16.80
2022-11-12T06:23:53.295Z,15.67
2022-11-12T06:26:20.280Z,17.17
2022-11-12T06:28:47.395Z,16.57
2022-11-12T06:31:14.328Z,15.80
2022-11-12T06:33:41.943Z,15.60
2022-11-12T06:36:10.885Z,16.53
2022-11-12T06:38:38.471Z,15.87
2022-11-12T06:41:05.666Z,16.03
2022-11-12T06:43:32.730Z,15.07
2022-11-12T06:46:01.085Z,15.13
2022-11-12T06:48:28.824Z,15.50
2022-11-12T06:50:56.608Z,14.47
2022-11-12T06:53:24.150Z,16.53
2022-11-12T06:55:51.050Z,15.17
2022-11-12T06:58:17.907Z,15.67
2022-11-12T07:00:44.785Z,16.77
2022-11-12T07:03:13.465Z,15.80
2022-11-12T07:05:40.336Z,16.10
2022-11-12T07:08:07.182Z,15.87
2022-11-12T07:10:33.954Z,15.47
2022-11-12T07:13:00.874Z,16.27
2022-11-12T07:15:27.637Z,16.07
2022-11-12T07:17:54.509Z,14.97
2022-11-12T07:20:21.428Z,16.00
2022-11-12T07:22:48.186Z,16.60
2022-11-12T07:25:15.036Z,17.57
2022-11-12T07:27:41.841Z,18.60
2022-11-12T07:30:09.104Z,17.33
2022-11-12T07:32:40.262Z,15.40
2022-11-12T07:35:10.512Z,15.83
2022-11-12T07:37:37.450Z,14.13
2022-11-12T07:40:04.986Z,14.53
2022-11-12T07:42:35.945Z,15.87
2022-11-12T07:45:02.907Z,15.70
2022-11-12T07:47:29.755Z,16.57
2022-11-12T07:49:56.617Z,14.50
2022-11-12T07:52:23.405Z,16.43
2022-11-12T07:54:50.722Z,15.63
2022-11-12T07:57:17.524Z,16.60
2022-11-12T07:59:46.367Z,15.57
2022-11-12T08:02:13.369Z,17.13
2022-11-12T08:04:40.194Z,15.07
2022-11-12T08:07:07.041Z,17.37
2022-11-12T08:09:33.954Z,14.47
2022-11-12T08:12:00.746Z,16.33
2022-11-12T08:14:27.526Z,16.43
2022-11-12T08:16:54.404Z,14.93
2022-11-12T08:19:21.317Z,15.83
2022-11-12T08:21:48.110Z,16.83
2022-11-12T08:24:14.885Z,17.27
2022-11-12T08:26:41.745Z,17.20
2022-11-12T08:29:09.193Z,17.10
2022-11-12T08:31:36.198Z,16.03
2022-11-12T08:34:12.306Z,15.70
2022-11-12T08:36:40.343Z,16.30
2022-11-12T08:39:07.532Z,16.50
2022-11-12T08:41:34.467Z,17.00
2022-11-12T08:44:07.090Z,16.60
2022-11-12T08:46:35.089Z,16.83
2022-11-12T08:49:02.000Z,17.07
2022-11-12T08:51:28.849Z,17.27
2022-11-12T08:53:56.740Z,17.37
2022-11-12T08:56:23.519Z,18.37
2022-11-12T08:58:50.365Z,17.43
2022-11-12T09:01:17.186Z,17.03
2022-11-12T09:03:44.036Z,16.77
2022-11-12T09:06:10.847Z,16.43
2022-11-12T09:08:37.949Z,15.57
2022-11-12T09:11:04.920Z,16.60
2022-11-12T09:13:32.001Z,16.33
2022-11-12T09:16:02.945Z,15.73
2022-11-12T09:18:30.049Z,17.90
2022-11-12T09:21:01.612Z,16.47
2022-11-12T09:23:28.440Z,16.17
2022-11-12T09:25:56.773Z,16.33
2022-11-12T09:28:23.901Z,15.57
2022-11-12T09:30:51.342Z,15.83
2022-11-12T09:33:29.658Z,17.23
2022-11-12T09:35:56.564Z,16.30
2022-11-12T09:38:23.415Z,15.67
2022-11-12T09:40:53.274Z,15.67
2022-11-12T09:43:28.877Z,15.07
2022-11-12T09:46:13.981Z,15.10
2022-11-12T09:48:49.405Z,15.20
2022-11-12T09:51:25.695Z,15.00
2022-11-12T09:53:57.013Z,15.90
2022-11-12T09:56:23.974Z,14.90
2022-11-12T09:58:52.857Z,14.43
2022-11-12T10:01:37.268Z,15.33
2022-11-12T10:04:41.393Z,105.77
2022-11-12T10:07:35.161Z,147.57
2022-11-12T10:10:37.265Z,182.30
2022-11-12T10:13:33.420Z,184.97
2022-11-12T10:16:48.449Z,166.23
2022-11-12T10:19:23.917Z,138.17
2022-11-12T10:22:24.653Z,173.80
2022-11-12T10:24:51.472Z,161.23
2022-11-12T10:27:22.731Z,142.87
2022-11-12T10:29:54.694Z,155.90
2022-11-12T10:32:21.461Z,143.53
2022-11-12T10:34:48.249Z,140.77
2022-11-12T10:37:35.213Z,116.83
2022-11-12T10:40:32.040Z,117.20
2022-11-12T10:42:59.849Z,116.57
2022-11-12T10:45:26.698Z,102.90
2022-11-12T10:47:53.526Z,96.33
2022-11-12T10:50:36.591Z,86.67
2022-11-12T10:53:07.812Z,94.75
2022-11-12T10:56:00.108Z,84.33
2022-11-12T10:58:27.164Z,67.90
2022-11-12T11:00:55.150Z,59.42
2022-11-12T11:03:25.761Z,70.27
2022-11-12T11:06:05.497Z,71.03
2022-11-12T11:08:39.912Z,63.20
2022-11-12T11:11:26.370Z,58.45
2022-11-12T11:13:57.687Z,54.97
2022-11-12T11:16:29.000Z,53.28
2022-11-12T11:18:59.956Z,51.47
2022-11-12T11:21:33.960Z,50.80
2022-11-12T11:24:30.301Z,53.28
2022-11-12T11:27:00.180Z,48.17
2022-11-12T11:29:26.990Z,48.13
2022-11-12T11:32:00.297Z,45.53
2022-11-12T11:34:48.768Z,48.25
2022-11-12T11:37:21.162Z,49.40
2022-11-12T11:40:30.542Z,49.00
2022-11-12T11:43:11.589Z,51.00
2022-11-12T11:46:15.886Z,43.05
2022-11-12T11:48:45.476Z,50.83
2022-11-12T11:51:37.257Z,53.92
2022-11-12T11:54:28.898Z,49.58
2022-11-12T11:56:58.479Z,42.13
2022-11-12T11:59:52.178Z,43.00
2022-11-12T12:02:24.377Z,44.25
2022-11-12T12:05:11.342Z,44.47
2022-11-12T12:07:41.378Z,39.67
2022-11-12T12:10:53.271Z,42.78
2022-11-12T12:13:41.370Z,39.85
2022-11-12T12:16:29.955Z,44.97
2022-11-12T12:19:18.460Z,41.85
2022-11-12T12:21:46.859Z,35.53
2022-11-12T12:24:18.885Z,38.60
2022-11-12T12:26:48.574Z,34.28
2022-11-12T12:29:35.093Z,32.40
2022-11-12T12:32:14.745Z,32.30
2022-11-12T12:35:07.871Z,30.75
2022-11-12T12:37:47.018Z,28.23
2022-11-12T12:40:50.073Z,30.13
2022-11-12T12:43:28.073Z,28.27
2022-11-12T12:45:54.881Z,28.70
2022-11-12T12:48:23.046Z,28.08
2022-11-12T12:50:49.986Z,27.08
2022-11-12T12:53:25.741Z,24.77
2022-11-12T12:55:58.184Z,23.70
2022-11-12T12:58:32.910Z,23.40
2022-11-12T13:01:03.829Z,23.20
2022-11-12T13:03:43.103Z,22.65
2022-11-12T13:06:31.677Z,21.63
2022-11-12T13:09:04.271Z,21.42
2022-11-12T13:12:01.660Z,22.67
2022-11-12T13:14:37.245Z,22.17
2022-11-12T13:17:05.410Z,21.63
2022-11-12T13:19:53.318Z,22.17
2022-11-12T13:22:20.074Z,22.98
2022-11-12T13:25:16.943Z,24.05
2022-11-12T13:27:43.690Z,23.63
2022-11-12T13:30:13.520Z,24.85
2022-11-12T13:32:51.945Z,24.80
2022-11-12T13:35:39.780Z,25.27
2022-11-12T13:38:10.510Z,23.98
2022-11-12T13:40:56.209Z,22.38
2022-11-12T13:43:43.365Z,23.90
2022-11-12T13:46:10.980Z,23.70
2022-11-12T13:48:44.470Z,25.10
2022-11-12T13:51:34.810Z,24.40
2022-11-12T13:54:01.940Z,24.67
2022-11-12T13:56:35.270Z,24.70
2022-11-12T13:59:21.814Z,24.67
2022-11-12T14:01:49.350Z,24.88
2022-11-12T14:04:25.378Z,25.13
2022-11-12T14:07:04.647Z,25.10
2022-11-12T14:09:59.586Z,24.80
2022-11-12T14:12:29.405Z,26.40
2022-11-12T14:15:02.346Z,25.27
2022-11-12T14:18:10.562Z,24.65
2022-11-12T14:20:40.560Z,27.45
2022-11-12T14:23:25.140Z,26.15
2022-11-12T14:25:56.595Z,26.85
2022-11-12T14:28:23.362Z,23.73
2022-11-12T14:30:50.183Z,22.88
2022-11-12T14:33:21.625Z,22.95
2022-11-12T14:35:49.764Z,22.20
2022-11-12T14:38:37.819Z,21.45
2022-11-12T14:41:08.763Z,22.48
2022-11-12T14:44:11.106Z,23.17
2022-11-12T14:46:39.481Z,22.85
2022-11-12T14:49:17.288Z,23.00
2022-11-12T14:51:48.843Z,23.13
2022-11-12T14:54:52.050Z,22.63
2022-11-12T14:57:23.553Z,23.42
2022-11-12T14:59:50.400Z,21.88
2022-11-12T15:02:41.657Z,22.42
2022-11-12T15:05:19.582Z,24.92
2022-11-12T15:08:00.656Z,23.85
2022-11-12T15:10:41.280Z,22.63
2022-11-12T15:13:20.314Z,24.15
2022-11-12T15:15:55.043Z,23.00
2022-11-12T15:18:26.549Z,22.15
2022-11-12T15:21:11.709Z,23.47
2022-11-12T15:23:49.784Z,21.27
2022-11-12T15:26:47.021Z,21.70
2022-11-12T15:29:15.689Z,22.75
2022-11-12T15:31:51.331Z,21.97
2022-11-12T15:34:29.338Z,22.90
2022-11-12T15:36:56.869Z,23.70
2022-11-12T15:39:25.297Z,28.47
2022-11-12T15:42:06.223Z,28.20
2022-11-12T15:44:35.665Z,27.45
2022-11-12T15:47:02.715Z,27.52
2022-11-12T15:49:29.557Z,30.90
2022-11-12T15:51:56.457Z,29.17
2022-11-12T15:54:23.226Z,28.93
2022-11-12T15:56:50.163Z,29.97
2022-11-12T15:59:17.733Z,28.77
2022-11-12T16:01:44.596Z,27.00
2022-11-12T16:04:12.453Z,28.13
2022-11-12T16:06:39.386Z,31.50
2022-11-12T16:09:06.273Z,33.30
2022-11-12T16:11:35.731Z,35.10
2022-11-12T16:14:07.165Z,40.17
2022-11-12T16:16:34.020Z,43.37
2022-11-12T16:19:00.862Z,46.30
2022-11-12T16:21:27.764Z,52.03
2022-11-12T16:23:54.761Z,51.83
2022-11-12T16:26:25.845Z,48.53
2022-11-12T16:28:52.614Z,50.63
2022-11-12T16:31:20.097Z,57.87
2022-11-12T16:33:46.869Z,62.20
2022-11-12T16:36:14.318Z,60.27
2022-11-12T16:38:41.227Z,60.70
2022-11-12T16:41:11.976Z,69.87
2022-11-12T16:43:39.173Z,64.83
2022-11-12T16:46:27.620Z,66.80
2022-11-12T16:48:54.510Z,73.53
2022-11-12T16:51:21.909Z,73.00
2022-11-12T16:53:48.858Z,74.63
2022-11-12T16:56:19.960Z,81.23
2022-11-12T16:58:48.450Z,85.93
2022-11-12T17:01:29.171Z,70.67
2022-11-12T17:03:56.357Z,23.10
2022-11-12T17:06:24.215Z,22.17
2022-11-12T17:08:54.452Z,22.93
2022-11-12T17:11:21.248Z,23.27
2022-11-12T17:13:48.021Z,22.40
2022-11-12T17:16:14.960Z,24.43
2022-11-12T17:18:41.784Z,21.17
2022-11-12T17:21:15.984Z,22.73
2022-11-12T17:23:42.912Z,23.40
2022-11-12T17:26:11.444Z,25.13
2022-11-12T17:28:38.462Z,23.83
2022-11-12T17:31:16.274Z,24.40
2022-11-12T17:33:44.718Z,25.57
2022-11-12T17:36:13.152Z,25.33
2022-11-12T17:38:40.149Z,25.13
2022-11-12T17:41:07.229Z,25.63
2022-11-12T17:43:37.677Z,26.43
2022-11-12T17:46:06.664Z,26.97
2022-11-12T17:48:34.274Z,26.03
2022-11-12T17:51:10.428Z,26.33
2022-11-12T17:53:37.325Z,26.20
2022-11-12T17:56:04.651Z,30.23
2022-11-12T17:58:31.710Z,27.43
2022-11-12T18:01:29.647Z,25.73
2022-11-12T18:03:57.016Z,25.30
2022-11-12T18:06:26.803Z,25.20
2022-11-12T18:09:01.240Z,24.77
2022-11-12T18:11:29.038Z,26.83
2022-11-12T18:13:56.602Z,27.97
2022-11-12T18:16:27.972Z,32.37
2022-11-12T18:18:55.573Z,34.33
2022-11-12T18:21:22.839Z,35.97
2022-11-12T18:23:49.780Z,35.27
2022-11-12T18:26:18.371Z,41.50
2022-11-12T18:28:50.467Z,47.30
2022-11-12T18:31:17.533Z,47.17
2022-11-12T18:33:44.324Z,47.13
2022-11-12T18:36:13.096Z,49.33
2022-11-12T18:38:39.872Z,42.33
2022-11-12T18:41:08.428Z,42.17
2022-11-12T18:43:38.405Z,42.23
2022-11-12T18:46:05.504Z,37.37
2022-11-12T18:48:33.350Z,33.27
2022-11-12T18:51:13.906Z,33.00
2022-11-12T18:53:41.458Z,30.97
2022-11-12T18:56:10.862Z,29.17
2022-11-12T18:58:38.802Z,29.30
2022-11-12T19:01:07.254Z,32.50
2022-11-12T19:03:34.803Z,35.57
2022-11-12T19:06:02.258Z,38.13
2022-11-12T19:08:29.111Z,35.77
2022-11-12T19:11:03.036Z,36.97
2022-11-12T19:13:30.168Z,34.47
2022-11-12T19:16:22.025Z,33.20
2022-11-12T19:18:49.466Z,32.13
2022-11-12T19:21:18.955Z,33.67
2022-11-12T19:23:51.316Z,34.23
2022-11-12T19:26:20.853Z,34.23
2022-11-12T19:28:47.631Z,32.63
2022-11-12T19:31:15.334Z,31.73
2022-11-12T19:33:42.218Z,32.57
2022-11-12T19:36:10.859Z,33.03
2022-11-12T19:38:37.757Z,32.47
2022-11-12T19:41:12.273Z,33.60
2022-11-12T19:43:41.809Z,32.83
2022-11-12T19:46:09.321Z,31.33
2022-11-12T19:48:36.254Z,29.87
2022-11-12T19:51:04.210Z,32.70
2022-11-12T19:53:32.049Z,31.00
2022-11-12T19:56:02.387Z,31.80
2022-11-12T19:58:29.751Z,31.50
2022-11-12T20:01:02.414Z,32.17
2022-11-12T20:03:29.999Z,29.57
2022-11-12T20:06:18.027Z,31.10
2022-11-12T20:08:45.186Z,28.20
2022-11-12T20:11:12.149Z,28.57
2022-11-12T20:13:39.370Z,29.97
2022-11-12T20:16:13.781Z,29.00
2022-11-12T20:18:40.629Z,28.53
2022-11-12T20:21:09.183Z,29.43
2022-11-12T20:23:36.822Z,27.20
2022-11-12T20:26:08.184Z,27.67
2022-11-12T20:28:35.774Z,29.73
2022-11-12T20:31:04.063Z,29.50
2022-11-12T20:33:30.985Z,29.13
2022-11-12T20:36:11.697Z,26.60
2022-11-12T20:38:42.657Z,26.23
2022-11-12T20:41:20.097Z,28.37
2022-11-12T20:43:47.035Z,25.20
2022-11-12T20:46:14.074Z,25.10
2022-11-12T20:48:43.349Z,26.77
2022-11-12T20:51:28.657Z,27.03
2022-11-12T20:53:59.969Z,26.13
2022-11-12T20:56:28.483Z,26.70
2022-11-12T20:58:55.335Z,24.40
2022-11-12T21:01:23.074Z,24.20
2022-11-12T21:03:50.069Z,25.93
2022-11-12T21:06:18.839Z,25.43
2022-11-12T21:08:45.696Z,26.07
2022-11-12T21:11:17.255Z,26.03
2022-11-12T21:13:44.081Z,26.27
2022-11-12T21:16:11.566Z,26.17
2022-11-12T21:18:38.442Z,28.10
2022-11-12T21:21:16.958Z,25.87
2022-11-12T21:23:45.215Z,25.50
2022-11-12T21:26:16.619Z,37.00
2022-11-12T21:28:44.192Z,36.93
2022-11-12T21:31:15.772Z,37.73
2022-11-12T21:33:43.076Z,39.57
2022-11-12T21:36:15.811Z,38.27
2022-11-12T21:38:43.686Z,36.43
2022-11-12T21:41:12.740Z,35.43
2022-11-12T21:43:40.671Z,41.53
2022-11-12T21:46:15.446Z,42.47
2022-11-12T21:48:42.615Z,42.93
2022-11-12T21:51:14.039Z,46.60
2022-11-12T21:53:41.099Z,41.60
2022-11-12T21:56:12.763Z,47.20
2022-11-12T21:58:39.750Z,50.80
2022-11-12T22:01:17.868Z,48.00
2022-11-12T22:03:44.719Z,51.33
2022-11-12T22:06:12.821Z,47.67
2022-11-12T22:08:40.221Z,49.60
2022-11-12T22:11:12.626Z,53.43
2022-11-12T22:13:39.525Z,52.43
2022-11-12T22:16:10.660Z,49.63
2022-11-12T22:18:37.581Z,48.70
2022-11-12T22:21:28.616Z,47.87
2022-11-12T22:23:56.012Z,49.23
2022-11-12T22:26:25.360Z,49.77
2022-11-12T22:28:53.158Z,48.47
2022-11-12T22:31:24.640Z,44.30
2022-11-12T22:33:51.415Z,45.10
2022-11-12T22:36:22.720Z,43.17
2022-11-12T22:38:50.635Z,44.40
2022-11-12T22:41:21.998Z,42.27
2022-11-12T22:43:51.866Z,41.93
2022-11-12T22:46:20.739Z,40.67
2022-11-12T22:48:47.670Z,38.53
2022-11-12T22:51:18.951Z,36.07
2022-11-12T22:53:45.884Z,36.23
2022-11-12T22:56:15.092Z,34.13
2022-11-12T22:58:43.774Z,33.97
2022-11-12T23:01:21.062Z,34.13
2022-11-12T23:03:48.643Z,33.07
2022-11-12T23:06:15.553Z,32.13
2022-11-12T23:08:42.647Z,30.23
2022-11-12T23:11:11.018Z,28.93
2022-11-12T23:13:38.141Z,30.57
2022-11-12T23:16:09.222Z,29.17
2022-11-12T23:18:36.114Z,29.80
2022-11-12T23:21:07.619Z,29.60
2022-11-12T23:23:35.003Z,28.17
2022-11-12T23:26:11.930Z,27.70
2022-11-12T23:28:38.770Z,28.93
2022-11-12T23:31:06.400Z,28.43
2022-11-12T23:33:33.195Z,28.50
2022-11-12T23:36:09.926Z,26.73
2022-11-12T23:38:36.746Z,26.93
2022-11-12T23:41:03.653Z,28.00
2022-11-12T23:43:30.509Z,27.60
2022-11-12T23:45:58.493Z,24.77
2022-11-12T23:48:25.720Z,25.43
2022-11-12T23:51:03.575Z,27.93
2022-11-12T23:53:30.949Z,27.00
2022-11-12T23:55:57.724Z,26.50
2022-11-12T23:58:24.760Z,28.27
